createdAt,value
2019-02-16T00:00:07.562Z,102387.33
2019-02-16T00:02:37.328Z,102370.68
2019-02-16T00:05:06.569Z,102376.25
2019-02-16T00:07:35.102Z,102379.45
2019-02-16T00:10:05.432Z,102368.87
2019-02-16T00:12:34.120Z,102377.27
2019-02-16T00:15:03.236Z,102363.31
2019-02-16T00:17:31.861Z,102365.66
2019-02-16T00:20:00.632Z,102371.16
2019-02-16T00:22:29.230Z,102364.09
2019-02-16T00:24:57.773Z,102357.58
2019-02-16T00:27:26.455Z,102358.92
2019-02-16T00:29:55.056Z,102358.94
2019-02-16T00:32:25.440Z,102353.77
2019-02-16T00:34:54.037Z,102360.98
2019-02-16T00:37:24.293Z,102350.56
2019-02-16T00:39:52.956Z,102359.71
2019-02-16T00:42:24.368Z,102356.05
2019-02-16T00:44:52.903Z,102351.38
2019-02-16T00:47:22.054Z,102353.90
2019-02-16T00:49:50.819Z,102349.05
2019-02-16T00:52:21.713Z,102345.53
2019-02-16T00:54:52.600Z,102347.77
2019-02-16T00:57:21.147Z,102348.05
2019-02-16T00:59:49.806Z,102339.41
2019-02-16T01:02:18.490Z,102341.48
2019-02-16T01:04:47.248Z,102333.40
2019-02-16T01:07:15.866Z,102326.99
2019-02-16T01:09:45.757Z,102329.62
2019-02-16T01:12:14.556Z,102324.70
2019-02-16T01:14:43.250Z,102321.45
2019-02-16T01:17:11.828Z,102317.34
2019-02-16T01:19:42.400Z,102321.36
2019-02-16T01:22:11.037Z,102312.16
2019-02-16T01:24:39.701Z,102314.57
2019-02-16T01:27:08.237Z,102307.19
2019-02-16T01:29:39.060Z,102299.17
2019-02-16T01:32:07.633Z,102300.30
2019-02-16T01:34:36.304Z,102302.70
2019-02-16T01:37:05.267Z,102297.31
2019-02-16T01:39:34.811Z,102295.19
2019-02-16T01:42:05.202Z,102298.16
2019-02-16T01:44:33.831Z,102290.23
2019-02-16T01:47:02.756Z,102290.06
2019-02-16T01:49:31.413Z,102295.17
2019-02-16T01:52:00.083Z,102290.28
2019-02-16T01:54:28.887Z,102285.06
2019-02-16T01:56:57.468Z,102281.81
2019-02-16T01:59:27.255Z,102273.36
2019-02-16T02:01:58.808Z,102270.33
2019-02-16T02:04:27.507Z,102275.72
2019-02-16T02:06:56.085Z,102265.16
2019-02-16T02:09:25.207Z,102263.09
2019-02-16T02:11:53.858Z,102266.97
2019-02-16T02:14:22.462Z,102261.95
2019-02-16T02:16:51.161Z,102254.27
2019-02-16T02:19:19.824Z,102254.43
2019-02-16T02:21:48.587Z,102250.67
2019-02-16T02:24:17.211Z,102246.36
2019-02-16T02:26:45.839Z,102243.48
2019-02-16T02:29:14.471Z,102248.27
2019-02-16T02:31:43.090Z,102237.99
2019-02-16T02:34:11.656Z,102250.05
2019-02-16T02:36:41.032Z,102236.86
2019-02-16T02:39:10.065Z,102243.15
2019-02-16T02:41:38.781Z,102237.55
2019-02-16T02:44:10.585Z,102237.20
2019-02-16T02:46:38.678Z,102233.56
2019-02-16T02:49:08.056Z,102230.97
2019-02-16T02:51:38.476Z,102232.97
2019-02-16T02:54:07.084Z,102233.08
2019-02-16T02:56:35.733Z,102237.59
2019-02-16T02:59:04.337Z,102233.37
2019-02-16T03:01:34.044Z,102237.90
2019-02-16T03:04:02.635Z,102228.92
2019-02-16T03:06:31.191Z,102222.48
2019-02-16T03:08:59.762Z,102216.08
2019-02-16T03:11:28.439Z,102224.00
2019-02-16T03:13:57.073Z,102216.43
2019-02-16T03:16:27.304Z,102214.62
2019-02-16T03:18:56.466Z,102217.19
2019-02-16T03:21:25.058Z,102216.39
2019-02-16T03:23:54.316Z,102216.77
2019-02-16T03:26:41.337Z,102214.50
2019-02-16T03:29:16.066Z,102214.37
2019-02-16T03:32:13.412Z,102216.05
2019-02-16T03:34:47.698Z,102217.44
2019-02-16T03:37:39.107Z,102220.26
2019-02-16T03:40:10.146Z,102213.15
2019-02-16T03:42:38.815Z,102209.66
2019-02-16T03:45:07.688Z,102206.71
2019-02-16T03:47:36.645Z,102212.48
2019-02-16T03:50:08.577Z,102202.13
2019-02-16T03:52:37.225Z,102203.72
2019-02-16T03:55:06.610Z,102202.30
2019-02-16T03:57:35.230Z,102201.79
2019-02-16T04:00:05.613Z,102200.11
2019-02-16T04:02:34.345Z,102199.48
2019-02-16T04:05:02.904Z,102200.73
2019-02-16T04:07:31.561Z,102206.75
2019-02-16T04:10:00.430Z,102200.48
2019-02-16T04:12:29.075Z,102201.53
2019-02-16T04:14:57.703Z,102192.41
2019-02-16T04:17:26.260Z,102190.47
2019-02-16T04:19:54.966Z,102189.59
2019-02-16T04:22:24.791Z,102187.10
2019-02-16T04:24:54.066Z,102186.56
2019-02-16T04:27:22.654Z,102177.98
2019-02-16T04:29:53.544Z,102169.27
2019-02-16T04:32:22.243Z,102161.95
2019-02-16T04:34:51.026Z,102163.67
2019-02-16T04:37:19.645Z,102160.18
2019-02-16T04:39:48.412Z,102160.41
2019-02-16T04:42:17.014Z,102144.70
2019-02-16T04:44:45.635Z,102149.70
2019-02-16T04:47:14.352Z,102141.25
2019-02-16T04:49:44.509Z,102145.59
2019-02-16T04:52:13.092Z,102142.02
2019-02-16T04:54:42.336Z,102135.25
2019-02-16T04:57:10.978Z,102137.60
2019-02-16T04:59:39.877Z,102139.28
2019-02-16T05:02:08.575Z,102137.23
2019-02-16T05:04:37.588Z,102135.49
2019-02-16T05:07:07.191Z,102136.34
2019-02-16T05:09:35.812Z,102130.91
2019-02-16T05:12:04.417Z,102126.33
2019-02-16T05:14:33.089Z,102127.98
2019-02-16T05:17:01.706Z,102132.31
2019-02-16T05:19:30.382Z,102126.00
2019-02-16T05:21:58.959Z,102125.08
2019-02-16T05:24:27.716Z,102119.31
2019-02-16T05:26:56.417Z,102114.60
2019-02-16T05:29:25.249Z,102113.38
2019-02-16T05:31:54.290Z,102111.70
2019-02-16T05:34:23.017Z,102104.47
2019-02-16T05:36:51.584Z,102109.84
2019-02-16T05:39:20.354Z,102119.19
2019-02-16T05:41:48.981Z,102111.20
2019-02-16T05:44:17.701Z,102107.70
2019-02-16T05:46:46.342Z,102109.89
2019-02-16T05:49:14.940Z,102108.42
2019-02-16T05:51:43.638Z,102109.43
2019-02-16T05:54:12.432Z,102113.94
2019-02-16T05:56:41.553Z,102110.69
2019-02-16T05:59:10.989Z,102110.30
2019-02-16T06:01:39.599Z,102113.30
2019-02-16T06:04:08.266Z,102115.98
2019-02-16T06:06:36.838Z,102111.69
2019-02-16T06:09:08.963Z,102110.78
2019-02-16T06:11:37.609Z,102103.12
2019-02-16T06:14:06.630Z,102103.88
2019-02-16T06:16:35.278Z,102104.50
2019-02-16T06:19:03.946Z,102103.79
2019-02-16T06:21:32.561Z,102106.95
2019-02-16T06:24:01.395Z,102101.06
2019-02-16T06:26:30.000Z,102106.61
2019-02-16T06:28:58.725Z,102104.34
2019-02-16T06:31:27.499Z,102092.52
2019-02-16T06:33:56.192Z,102096.94
2019-02-16T06:36:26.509Z,102100.22
2019-02-16T06:38:55.085Z,102110.14
2019-02-16T06:41:23.608Z,102105.06
2019-02-16T06:43:52.190Z,102108.20
2019-02-16T06:46:20.723Z,102108.05
2019-02-16T06:48:49.343Z,102112.20
2019-02-16T06:51:17.889Z,102113.30
2019-02-16T06:53:46.490Z,102114.23
2019-02-16T06:56:19.044Z,102116.45
2019-02-16T06:58:47.506Z,102112.03
2019-02-16T07:01:17.004Z,102117.59
2019-02-16T07:03:45.832Z,102121.93
2019-02-16T07:06:14.374Z,102118.25
2019-02-16T07:08:44.244Z,102119.77
2019-02-16T07:11:13.152Z,102119.44
2019-02-16T07:13:41.761Z,102130.23
2019-02-16T07:16:11.946Z,102121.53
2019-02-16T07:18:42.312Z,102116.57
2019-02-16T07:21:11.030Z,102117.33
2019-02-16T07:23:40.699Z,102116.95
2019-02-16T07:26:09.337Z,102118.86
2019-02-16T07:28:37.951Z,102114.87
2019-02-16T07:31:06.540Z,102120.07
2019-02-16T07:33:37.519Z,102116.62
2019-02-16T07:36:06.057Z,102116.70
2019-02-16T07:38:34.706Z,102102.48
2019-02-16T07:41:03.232Z,102108.95
2019-02-16T07:43:51.978Z,102115.20
2019-02-16T07:46:31.321Z,102115.44
2019-02-16T07:49:07.594Z,102110.06
2019-02-16T07:51:55.765Z,102117.66
2019-02-16T07:54:35.343Z,102117.52
2019-02-16T07:57:08.671Z,102103.86
2019-02-16T07:59:39.042Z,102103.14
2019-02-16T08:02:09.228Z,102115.17
2019-02-16T08:04:55.850Z,102111.11
2019-02-16T08:07:35.189Z,102109.05
2019-02-16T08:10:21.968Z,102109.92
2019-02-16T08:12:52.155Z,102113.49
2019-02-16T08:15:34.424Z,102111.67
2019-02-16T08:18:04.637Z,102109.02
2019-02-16T08:20:41.639Z,102108.95
2019-02-16T08:23:20.908Z,102098.20
2019-02-16T08:25:53.880Z,102098.34
2019-02-16T08:28:27.315Z,102089.38
2019-02-16T08:30:57.569Z,102091.83
2019-02-16T08:33:27.792Z,102089.86
2019-02-16T08:35:58.050Z,102096.84
2019-02-16T08:38:40.205Z,102089.08
2019-02-16T08:41:26.617Z,102089.50
2019-02-16T08:44:13.311Z,102095.05
2019-02-16T08:46:49.472Z,102089.38
2019-02-16T08:49:28.438Z,102092.80
2019-02-16T08:51:58.648Z,102091.30
2019-02-16T08:54:54.901Z,102094.60
2019-02-16T08:57:27.601Z,102091.25
2019-02-16T09:00:14.383Z,102089.23
2019-02-16T09:02:47.570Z,102092.36
2019-02-16T09:05:22.879Z,102085.59
2019-02-16T09:07:57.019Z,102082.98
2019-02-16T09:10:35.855Z,102083.80
2019-02-16T09:13:11.084Z,102082.75
2019-02-16T09:15:41.389Z,102085.23
2019-02-16T09:18:30.079Z,102084.18
2019-02-16T09:21:18.460Z,102084.48
2019-02-16T09:23:48.650Z,102082.13
2019-02-16T09:26:27.925Z,102084.16
2019-02-16T09:29:03.943Z,102078.53
2019-02-16T09:31:42.755Z,102084.73
2019-02-16T09:34:15.715Z,102074.82
2019-02-16T09:36:57.884Z,102076.28
2019-02-16T09:39:30.573Z,102072.78
2019-02-16T09:42:03.954Z,102072.11
2019-02-16T09:44:43.038Z,102080.04
2019-02-16T09:47:14.246Z,102081.95
2019-02-16T09:49:59.543Z,102081.59
2019-02-16T09:52:29.747Z,102085.94
2019-02-16T09:55:12.619Z,102076.58
2019-02-16T09:57:54.899Z,102077.56
2019-02-16T10:00:33.964Z,102079.89
2019-02-16T10:03:13.212Z,102076.52
2019-02-16T10:05:55.724Z,102079.32
2019-02-16T10:08:26.395Z,102080.63
2019-02-16T10:10:57.591Z,102077.80
2019-02-16T10:13:27.843Z,102078.04
2019-02-16T10:16:01.150Z,102085.73
2019-02-16T10:18:31.369Z,102082.40
2019-02-16T10:21:19.509Z,102081.58
2019-02-16T10:24:01.707Z,102082.42
2019-02-16T10:26:35.057Z,102066.73
2019-02-16T10:29:05.326Z,102067.36
2019-02-16T10:31:47.665Z,102067.24
2019-02-16T10:34:20.649Z,102070.66
2019-02-16T10:37:09.016Z,102066.06
2019-02-16T10:42:37.211Z,102072.45
2019-02-16T10:45:19.778Z,102051.77
2019-02-16T10:47:55.843Z,102055.08
2019-02-16T10:50:26.029Z,102056.13
2019-02-16T10:53:14.279Z,102055.73
2019-02-16T10:55:44.476Z,102049.28
2019-02-16T10:58:30.713Z,102045.28
2019-02-16T11:01:15.815Z,102032.71
2019-02-16T11:03:48.774Z,102031.33
2019-02-16T11:06:21.440Z,102037.31
2019-02-16T11:09:00.472Z,102016.34
2019-02-16T11:11:47.638Z,102027.10
2019-02-16T11:14:33.946Z,102013.80
2019-02-16T11:17:10.162Z,102021.20
2019-02-16T11:19:47.018Z,102026.91
2019-02-16T11:22:17.303Z,102022.39
2019-02-16T11:25:05.957Z,102013.44
2019-02-16T11:27:52.624Z,102024.34
2019-02-16T11:30:23.244Z,102033.89
2019-02-16T11:32:58.919Z,102032.24
2019-02-16T11:35:29.425Z,102031.85
2019-02-16T11:38:08.593Z,102033.73
2019-02-16T11:40:44.699Z,102038.41
2019-02-16T11:43:31.392Z,102033.31
2019-02-16T11:46:01.805Z,102035.25
2019-02-16T11:48:47.098Z,102028.23
2019-02-16T11:51:17.377Z,102030.41
2019-02-16T11:53:53.282Z,102030.24
2019-02-16T11:56:26.245Z,102033.91
2019-02-16T11:58:56.524Z,102032.22
2019-02-16T12:01:29.613Z,102035.20
2019-02-16T12:03:59.866Z,102039.94
2019-02-16T12:06:41.798Z,102038.13
2019-02-16T12:09:28.811Z,102036.81
2019-02-16T12:12:11.652Z,102013.66
2019-02-16T12:14:54.106Z,102014.82
2019-02-16T12:17:40.546Z,102028.95
2019-02-16T12:20:20.218Z,102026.70
2019-02-16T12:23:08.552Z,102037.41
2019-02-16T12:25:41.486Z,102028.28
2019-02-16T12:28:17.936Z,102034.33
2019-02-16T12:30:49.242Z,102038.52
2019-02-16T12:33:21.922Z,102043.76
2019-02-16T12:35:54.947Z,102037.08
2019-02-16T12:38:40.713Z,102031.03
2019-02-16T12:41:13.660Z,102042.48
2019-02-16T12:43:49.632Z,102038.92
2019-02-16T12:46:22.801Z,102040.29
2019-02-16T12:48:56.477Z,102017.33
2019-02-16T12:51:26.704Z,102009.69
2019-02-16T12:53:57.092Z,102003.88
2019-02-16T12:56:27.343Z,101999.28
2019-02-16T12:58:58.718Z,101997.83
2019-02-16T13:01:31.511Z,101995.23
2019-02-16T13:04:07.914Z,101987.11
2019-02-16T13:06:50.589Z,101993.97
2019-02-16T13:09:26.169Z,102004.48
2019-02-16T13:11:58.904Z,102004.72
2019-02-16T13:14:29.316Z,102001.17
2019-02-16T13:16:59.928Z,101997.38
2019-02-16T13:19:33.244Z,101991.67
2019-02-16T13:22:08.153Z,101999.26
2019-02-16T13:24:41.602Z,101996.33
2019-02-16T13:27:29.277Z,101993.17
2019-02-16T13:30:07.749Z,101993.70
2019-02-16T13:32:38.022Z,101993.99
2019-02-16T13:35:24.405Z,101993.13
2019-02-16T13:37:54.800Z,101983.06
2019-02-16T13:40:30.877Z,101983.77
2019-02-16T13:43:01.262Z,101993.77
2019-02-16T13:45:46.475Z,101994.62
2019-02-16T13:48:22.187Z,101997.66
2019-02-16T13:50:55.495Z,101990.89
2019-02-16T13:53:30.859Z,101967.99
2019-02-16T13:56:13.797Z,101960.78
2019-02-16T13:58:44.322Z,101955.09
2019-02-16T14:01:15.718Z,101957.05
2019-02-16T14:03:53.744Z,101963.25
2019-02-16T14:06:29.963Z,101945.42
2019-02-16T14:09:02.052Z,101952.85
2019-02-16T14:11:44.085Z,101939.23
2019-02-16T14:14:14.429Z,101937.03
2019-02-16T14:16:56.666Z,101936.13
2019-02-16T14:19:25.718Z,101928.98
2019-02-16T14:21:55.348Z,101926.70
2019-02-16T14:24:43.902Z,101923.61
2019-02-16T14:27:12.439Z,101918.05
2019-02-16T14:29:41.142Z,101924.52
2019-02-16T14:32:11.755Z,101923.11
2019-02-16T14:34:40.372Z,101917.95
2019-02-16T14:37:10.755Z,101913.41
2019-02-16T14:39:39.905Z,101913.50
2019-02-16T14:42:08.584Z,101910.52
2019-02-16T14:44:37.154Z,101906.28
2019-02-16T14:47:05.775Z,101901.93
2019-02-16T14:49:34.378Z,101912.78
2019-02-16T14:52:03.027Z,101911.79
2019-02-16T14:54:31.990Z,101902.59
2019-02-16T14:57:00.740Z,101896.58
2019-02-16T14:59:29.565Z,101896.31
2019-02-16T15:01:59.057Z,101900.63
2019-02-16T15:04:28.000Z,101906.66
2019-02-16T15:06:56.864Z,101893.48
2019-02-16T15:09:25.464Z,101897.64
2019-02-16T15:11:54.178Z,101897.18
2019-02-16T15:14:22.896Z,101894.97
2019-02-16T15:16:51.590Z,101888.16
2019-02-16T15:19:20.283Z,101890.09
2019-02-16T15:21:49.487Z,101899.78
2019-02-16T15:24:18.157Z,101897.19
2019-02-16T15:26:46.848Z,101890.33
2019-02-16T15:29:15.440Z,101885.41
2019-02-16T15:31:44.051Z,101886.82
2019-02-16T15:34:13.057Z,101885.28
2019-02-16T15:36:41.871Z,101886.11
2019-02-16T15:39:10.587Z,101882.34
2019-02-16T15:41:39.353Z,101874.11
2019-02-16T15:44:07.889Z,101879.44
2019-02-16T15:46:36.580Z,101880.59
2019-02-16T15:49:05.192Z,101885.61
2019-02-16T15:51:33.801Z,101883.14
2019-02-16T15:54:02.331Z,101876.34
2019-02-16T15:56:30.967Z,101871.42
2019-02-16T15:58:59.524Z,101871.75
2019-02-16T16:01:28.328Z,101874.48
2019-02-16T16:03:56.951Z,101868.19
2019-02-16T16:06:25.612Z,101861.87
2019-02-16T16:08:55.775Z,101858.20
2019-02-16T16:11:41.466Z,101854.08
2019-02-16T16:14:14.502Z,101853.00
2019-02-16T16:16:44.738Z,101850.09
2019-02-16T16:19:15.184Z,101861.06
2019-02-16T16:21:45.529Z,101863.91
2019-02-16T16:24:22.078Z,101860.69
2019-02-16T16:26:52.431Z,101865.38
2019-02-16T16:29:31.547Z,101862.62
2019-02-16T16:32:01.787Z,101866.09
2019-02-16T16:34:50.793Z,101871.52
2019-02-16T16:37:22.147Z,101876.61
2019-02-16T16:40:08.554Z,101872.12
2019-02-16T16:42:44.793Z,101870.75
2019-02-16T16:45:31.503Z,101874.02
2019-02-16T16:48:04.798Z,101875.09
2019-02-16T16:50:48.356Z,101866.82
2019-02-16T16:53:27.582Z,101868.53
2019-02-16T16:56:14.290Z,101867.80
2019-02-16T16:59:03.005Z,101864.34
2019-02-16T17:01:33.318Z,101866.97
2019-02-16T17:04:03.598Z,101870.06
2019-02-16T17:06:33.850Z,101876.11
2019-02-16T17:09:15.887Z,101872.89
2019-02-16T17:11:48.375Z,101882.70
2019-02-16T17:14:21.398Z,101881.39
2019-02-16T17:17:06.801Z,101877.83
2019-02-16T17:19:37.562Z,101877.44
2019-02-16T17:22:13.924Z,101880.73
2019-02-16T17:24:47.237Z,101878.10
2019-02-16T17:27:22.620Z,101876.22
2019-02-16T17:29:56.509Z,101881.98
2019-02-16T17:32:29.747Z,101876.27
2019-02-16T17:35:06.235Z,101874.61
2019-02-16T17:37:39.579Z,101879.16
2019-02-16T17:40:26.775Z,101873.84
2019-02-16T17:43:12.154Z,101872.23
2019-02-16T17:45:51.609Z,101875.19
2019-02-16T17:48:21.961Z,101874.19
2019-02-16T17:50:52.276Z,101872.62
2019-02-16T17:53:38.874Z,101878.61
2019-02-16T17:56:09.210Z,101872.64
2019-02-16T17:58:42.193Z,101882.37
2019-02-16T18:01:20.143Z,101880.61
2019-02-16T18:04:05.611Z,101875.56
2019-02-16T18:06:44.847Z,101881.39
2019-02-16T18:09:15.498Z,101876.92
2019-02-16T18:11:51.628Z,101878.06
2019-02-16T18:14:21.983Z,101873.53
2019-02-16T18:16:55.313Z,101887.16
2019-02-16T18:19:31.549Z,101889.61
2019-02-16T18:22:02.050Z,101883.72
2019-02-16T18:24:48.083Z,101876.52
2019-02-16T18:27:32.481Z,101880.69
2019-02-16T18:30:19.067Z,101879.35
2019-02-16T18:32:58.688Z,101872.08
2019-02-16T18:35:29.062Z,101876.34
2019-02-16T18:38:16.474Z,101875.94
2019-02-16T18:41:01.884Z,101878.45
2019-02-16T18:43:50.145Z,101890.27
2019-02-16T18:46:33.120Z,101889.46
2019-02-16T18:49:03.350Z,101892.16
2019-02-16T18:51:42.486Z,101889.44
2019-02-16T18:54:24.699Z,101889.58
2019-02-16T18:57:11.195Z,101896.83
2019-02-16T18:59:47.622Z,101897.50
2019-02-16T19:02:20.797Z,101897.62
2019-02-16T19:04:52.212Z,101893.41
2019-02-16T19:07:28.036Z,101894.70
2019-02-16T19:10:13.468Z,101888.41
2019-02-16T19:12:47.037Z,101894.33
2019-02-16T19:15:29.946Z,101889.86
2019-02-16T19:18:18.117Z,101884.77
2019-02-16T19:20:50.331Z,101885.77
2019-02-16T19:23:26.908Z,101888.98
2019-02-16T19:26:03.212Z,101885.77
2019-02-16T19:28:48.720Z,101892.61
2019-02-16T19:31:21.830Z,101895.66
2019-02-16T19:33:54.770Z,101889.22
2019-02-16T19:36:27.611Z,101888.33
2019-02-16T19:39:01.145Z,101890.44
2019-02-16T19:41:48.016Z,101892.19
2019-02-16T19:44:30.619Z,101892.80
2019-02-16T19:47:07.135Z,101892.36
2019-02-16T19:49:38.800Z,101885.05
2019-02-16T19:52:09.128Z,101887.29
2019-02-16T19:57:36.816Z,101885.81
2019-02-16T20:00:19.394Z,101883.27
2019-02-16T20:02:52.329Z,101876.85
2019-02-16T20:05:37.876Z,101883.58
2019-02-16T20:08:17.516Z,101874.52
2019-02-16T20:11:04.023Z,101869.83
2019-02-16T20:13:37.470Z,101879.10
2019-02-16T20:16:09.784Z,101876.84
2019-02-16T20:18:46.156Z,101880.41
2019-02-16T20:21:22.527Z,101877.84
2019-02-16T20:24:01.732Z,101883.27
2019-02-16T20:26:51.220Z,101883.33
2019-02-16T20:29:24.515Z,101879.59
2019-02-16T20:32:07.208Z,101883.92
2019-02-16T20:34:40.243Z,101882.58
2019-02-16T20:37:26.635Z,101886.48
2019-02-16T20:40:05.718Z,101886.59
2019-02-16T20:42:45.301Z,101887.91
2019-02-16T20:45:15.743Z,101884.16
2019-02-16T20:47:55.167Z,101889.02
2019-02-16T20:50:26.880Z,101886.67
2019-02-16T20:53:03.165Z,101884.80
2019-02-16T20:55:45.330Z,101884.28
2019-02-16T20:58:24.707Z,101888.56
2019-02-16T21:00:57.166Z,101881.14
2019-02-16T21:03:43.347Z,101882.23
2019-02-16T21:06:25.916Z,101884.63
2019-02-16T21:08:56.251Z,101889.20
2019-02-16T21:11:26.833Z,101884.61
2019-02-16T21:14:13.817Z,101882.62
2019-02-16T21:16:48.347Z,101882.95
2019-02-16T21:19:21.892Z,101877.95
2019-02-16T21:21:55.396Z,101886.30
2019-02-16T21:24:25.716Z,101887.12
2019-02-16T21:27:11.569Z,101884.09
2019-02-16T21:29:58.732Z,101887.90
2019-02-16T21:32:31.940Z,101886.92
2019-02-16T21:35:05.029Z,101893.68
2019-02-16T21:37:35.747Z,101886.75
2019-02-16T21:40:12.480Z,101882.83
2019-02-16T21:42:46.404Z,101884.59
2019-02-16T21:45:33.415Z,101886.33
2019-02-16T21:48:15.785Z,101879.48
2019-02-16T21:50:57.823Z,101879.57
2019-02-16T21:53:44.491Z,101883.02
2019-02-16T21:56:15.115Z,101879.59
2019-02-16T21:58:45.462Z,101887.78
2019-02-16T22:01:25.273Z,101890.91
2019-02-16T22:03:55.860Z,101887.74
2019-02-16T22:06:26.169Z,101884.94
2019-02-16T22:09:13.016Z,101892.31
2019-02-16T22:11:49.073Z,101890.17
2019-02-16T22:14:17.956Z,101901.67
2019-02-16T22:16:46.683Z,101894.30
2019-02-16T22:19:15.401Z,101900.77
2019-02-16T22:21:44.065Z,101897.39
2019-02-16T22:24:13.053Z,101903.77
2019-02-16T22:26:41.710Z,101904.50
2019-02-16T22:29:10.540Z,101891.41
2019-02-16T22:31:39.143Z,101893.52
2019-02-16T22:34:08.093Z,101890.08
2019-02-16T22:36:36.851Z,101902.28
2019-02-16T22:39:06.268Z,101903.28
2019-02-16T22:41:34.912Z,101895.95
2019-02-16T22:44:03.597Z,101903.78
2019-02-16T22:46:32.145Z,101902.64
2019-02-16T22:49:00.997Z,101912.13
2019-02-16T22:51:29.674Z,101912.42
2019-02-16T22:53:58.264Z,101920.20
2019-02-16T22:56:26.974Z,101916.95
2019-02-16T22:58:55.595Z,101921.11
2019-02-16T23:01:24.510Z,101916.34
2019-02-16T23:03:53.529Z,101919.33
2019-02-16T23:06:23.270Z,101927.98
2019-02-16T23:08:51.879Z,101919.66
2019-02-16T23:11:20.538Z,101920.21
2019-02-16T23:13:49.223Z,101923.00
2019-02-16T23:16:17.952Z,101921.09
2019-02-16T23:18:46.626Z,101930.87
2019-02-16T23:21:15.181Z,101928.40
2019-02-16T23:23:43.821Z,101929.75
2019-02-16T23:26:12.439Z,101929.59
2019-02-16T23:28:41.356Z,101934.67
2019-02-16T23:31:10.008Z,101928.17
2019-02-16T23:33:38.629Z,101931.64
2019-02-16T23:36:07.253Z,101930.30
2019-02-16T23:38:36.099Z,101930.22
2019-02-16T23:41:06.525Z,101934.59
2019-02-16T23:43:37.131Z,101922.36
2019-02-16T23:46:05.755Z,101922.73
2019-02-16T23:48:34.487Z,101927.00
2019-02-16T23:51:03.121Z,101919.09
2019-02-16T23:53:32.864Z,101928.81
2019-02-16T23:56:01.419Z,101925.60
2019-02-16T23:58:30.077Z,101923.14
